sensor_id;sensor_type;location;lat;lon;timestamp;P1;durP1;ratioP1;P2;durP2;ratioP2
11535;SDS011;5824;49.336;8.652;2024-03-23T00:53:16;9.10;;;6.37;;
11535;SDS011;5824;49.336;8.652;2024-03-23T00:55:42;11.27;;;6.53;;
11535;SDS011;5824;49.336;8.652;2024-03-23T00:58:08;9.20;;;5.90;;
11535;SDS011;5824;49.336;8.652;2024-03-23T01:00:34;9.20;;;5.93;;
11535;SDS011;5824;49.336;8.652;2024-03-23T01:02:59;9.20;;;6.30;;
11535;SDS011;5824;49.336;8.652;2024-03-23T01:05:25;8.37;;;6.47;;
11535;SDS011;5824;49.336;8.652;2024-03-23T01:07:50;10.50;;;6.53;;
11535;SDS011;5824;49.336;8.652;2024-03-23T01:10:16;8.73;;;6.10;;
11535;SDS011;5824;49.336;8.652;2024-03-23T01:12:41;9.37;;;6.57;;
11535;SDS011;5824;49.336;8.652;2024-03-23T01:15:07;9.93;;;6.27;;
11535;SDS011;5824;49.336;8.652;2024-03-23T01:17:33;14.30;;;6.47;;
11535;SDS011;5824;49.336;8.652;2024-03-23T01:19:58;10.17;;;6.23;;
11535;SDS011;5824;49.336;8.652;2024-03-23T01:22:24;9.53;;;6.30;;
11535;SDS011;5824;49.336;8.652;2024-03-23T01:24:49;8.60;;;6.30;;
11535;SDS011;5824;49.336;8.652;2024-03-23T01:27:15;8.63;;;5.90;;
11535;SDS011;5824;49.336;8.652;2024-03-23T01:29:40;12.23;;;6.20;;
11535;SDS011;5824;49.336;8.652;2024-03-23T01:32:06;8.53;;;6.33;;
11535;SDS011;5824;49.336;8.652;2024-03-23T01:34:32;11.93;;;6.83;;
11535;SDS011;5824;49.336;8.652;2024-03-23T01:36:57;9.57;;;7.30;;
11535;SDS011;5824;49.336;8.652;2024-03-23T01:39:23;12.77;;;6.80;;
11535;SDS011;5824;49.336;8.652;2024-03-23T01:41:49;9.03;;;6.67;;
11535;SDS011;5824;49.336;8.652;2024-03-23T01:44:14;11.17;;;6.63;;
11535;SDS011;5824;49.336;8.652;2024-03-23T01:46:41;8.90;;;6.47;;
11535;SDS011;5824;49.336;8.652;2024-03-23T01:49:07;8.93;;;5.90;;
11535;SDS011;5824;49.336;8.652;2024-03-23T01:51:33;8.10;;;5.90;;
11535;SDS011;5824;49.336;8.652;2024-03-23T01:54:00;8.53;;;5.73;;
11535;SDS011;5824;49.336;8.652;2024-03-23T01:56:31;8.57;;;6.70;;
11535;SDS011;5824;49.336;8.652;2024-03-23T01:59:03;10.37;;;6.30;;
11535;SDS011;5824;49.336;8.652;2024-03-23T02:01:32;10.70;;;6.43;;
11535;SDS011;5824;49.336;8.652;2024-03-23T02:04:01;10.43;;;6.43;;
11535;SDS011;5824;49.336;8.652;2024-03-23T02:06:26;15.70;;;5.63;;
11535;SDS011;5824;49.336;8.652;2024-03-23T02:08:53;8.80;;;6.03;;
11535;SDS011;5824;49.336;8.652;2024-03-23T02:11:19;8.60;;;5.73;;
11535;SDS011;5824;49.336;8.652;2024-03-23T02:13:45;8.30;;;5.93;;
11535;SDS011;5824;49.336;8.652;2024-03-23T02:16:10;9.57;;;6.00;;
11535;SDS011;5824;49.336;8.652;2024-03-23T02:18:36;11.47;;;5.97;;
11535;SDS011;5824;49.336;8.652;2024-03-23T02:21:02;9.53;;;5.43;;
11535;SDS011;5824;49.336;8.652;2024-03-23T02:23:28;11.20;;;5.83;;
11535;SDS011;5824;49.336;8.652;2024-03-23T02:25:53;7.43;;;5.60;;
11535;SDS011;5824;49.336;8.652;2024-03-23T02:28:19;8.70;;;5.67;;
11535;SDS011;5824;49.336;8.652;2024-03-23T02:30:45;8.37;;;5.20;;
11535;SDS011;5824;49.336;8.652;2024-03-23T02:33:10;7.50;;;4.83;;
11535;SDS011;5824;49.336;8.652;2024-03-23T02:35:36;8.77;;;5.80;;
11535;SDS011;5824;49.336;8.652;2024-03-23T02:38:02;9.30;;;5.30;;
11535;SDS011;5824;49.336;8.652;2024-03-23T02:40:28;7.47;;;4.77;;
11535;SDS011;5824;49.336;8.652;2024-03-23T02:42:53;8.80;;;5.03;;
11535;SDS011;5824;49.336;8.652;2024-03-23T02:45:19;8.03;;;4.70;;
11535;SDS011;5824;49.336;8.652;2024-03-23T02:47:45;9.63;;;5.53;;
11535;SDS011;5824;49.336;8.652;2024-03-23T02:50:10;8.47;;;4.70;;
11535;SDS011;5824;49.336;8.652;2024-03-23T02:52:36;13.43;;;4.83;;
11535;SDS011;5824;49.336;8.652;2024-03-23T02:55:02;7.00;;;5.10;;
11535;SDS011;5824;49.336;8.652;2024-03-23T02:57:28;6.83;;;4.70;;
11535;SDS011;5824;49.336;8.652;2024-03-23T02:59:54;6.90;;;4.87;;
11535;SDS011;5824;49.336;8.652;2024-03-23T03:02:19;5.63;;;5.03;;
11535;SDS011;5824;49.336;8.652;2024-03-23T03:04:46;11.10;;;4.70;;
11535;SDS011;5824;49.336;8.652;2024-03-23T03:07:11;8.00;;;5.10;;
11535;SDS011;5824;49.336;8.652;2024-03-23T03:09:37;9.50;;;5.67;;
11535;SDS011;5824;49.336;8.652;2024-03-23T03:12:04;8.40;;;4.73;;
11535;SDS011;5824;49.336;8.652;2024-03-23T03:14:33;6.63;;;4.90;;
11535;SDS011;5824;49.336;8.652;2024-03-23T03:16:59;7.43;;;5.17;;
11535;SDS011;5824;49.336;8.652;2024-03-23T03:19:25;7.17;;;5.00;;
11535;SDS011;5824;49.336;8.652;2024-03-23T03:21:51;8.90;;;5.47;;
11535;SDS011;5824;49.336;8.652;2024-03-23T03:24:16;11.90;;;4.90;;
11535;SDS011;5824;49.336;8.652;2024-03-23T03:26:42;11.13;;;5.80;;
11535;SDS011;5824;49.336;8.652;2024-03-23T03:29:08;8.77;;;6.10;;
11535;SDS011;5824;49.336;8.652;2024-03-23T03:31:33;8.27;;;5.57;;
11535;SDS011;5824;49.336;8.652;2024-03-23T03:33:59;7.43;;;5.60;;
11535;SDS011;5824;49.336;8.652;2024-03-23T03:36:24;10.20;;;5.80;;
11535;SDS011;5824;49.336;8.652;2024-03-23T03:38:50;9.27;;;5.80;;
11535;SDS011;5824;49.336;8.652;2024-03-23T03:41:15;8.17;;;6.17;;
11535;SDS011;5824;49.336;8.652;2024-03-23T03:43:41;9.50;;;5.63;;
11535;SDS011;5824;49.336;8.652;2024-03-23T03:46:07;8.73;;;6.07;;
11535;SDS011;5824;49.336;8.652;2024-03-23T03:48:33;9.60;;;6.30;;
11535;SDS011;5824;49.336;8.652;2024-03-23T03:50:58;9.40;;;6.03;;
11535;SDS011;5824;49.336;8.652;2024-03-23T03:53:24;9.93;;;6.13;;
11535;SDS011;5824;49.336;8.652;2024-03-23T03:55:50;9.00;;;6.53;;
11535;SDS011;5824;49.336;8.652;2024-03-23T03:58:15;12.97;;;6.37;;
11535;SDS011;5824;49.336;8.652;2024-03-23T04:00:41;10.93;;;6.60;;
11535;SDS011;5824;49.336;8.652;2024-03-23T04:03:06;9.17;;;6.17;;
11535;SDS011;5824;49.336;8.652;2024-03-23T04:05:32;8.97;;;6.57;;
11535;SDS011;5824;49.336;8.652;2024-03-23T04:07:57;8.30;;;6.50;;
11535;SDS011;5824;49.336;8.652;2024-03-23T04:10:23;9.83;;;6.23;;
11535;SDS011;5824;49.336;8.652;2024-03-23T04:12:49;15.40;;;7.30;;
11535;SDS011;5824;49.336;8.652;2024-03-23T04:15:15;9.83;;;6.30;;
11535;SDS011;5824;49.336;8.652;2024-03-23T04:17:41;10.20;;;6.73;;
11535;SDS011;5824;49.336;8.652;2024-03-23T04:20:08;13.17;;;7.43;;
11535;SDS011;5824;49.336;8.652;2024-03-23T04:22:36;12.70;;;7.40;;
11535;SDS011;5824;49.336;8.652;2024-03-23T04:25:02;16.07;;;8.13;;
11535;SDS011;5824;49.336;8.652;2024-03-23T04:27:31;13.73;;;8.07;;
11535;SDS011;5824;49.336;8.652;2024-03-23T04:30:00;13.37;;;7.60;;
11535;SDS011;5824;49.336;8.652;2024-03-23T04:32:27;15.00;;;7.80;;
11535;SDS011;5824;49.336;8.652;2024-03-23T04:34:53;15.30;;;8.43;;
11535;SDS011;5824;49.336;8.652;2024-03-23T04:37:19;14.17;;;8.37;;
11535;SDS011;5824;49.336;8.652;2024-03-23T04:39:45;18.60;;;8.83;;
11535;SDS011;5824;49.336;8.652;2024-03-23T04:42:11;11.87;;;7.57;;
11535;SDS011;5824;49.336;8.652;2024-03-23T04:44:37;11.80;;;7.40;;
11535;SDS011;5824;49.336;8.652;2024-03-23T04:47:02;10.90;;;7.00;;
11535;SDS011;5824;49.336;8.652;2024-03-23T04:49:28;12.73;;;7.50;;
11535;SDS011;5824;49.336;8.652;2024-03-23T04:51:54;13.37;;;7.87;;
11535;SDS011;5824;49.336;8.652;2024-03-23T04:54:19;11.00;;;6.63;;
11535;SDS011;5824;49.336;8.652;2024-03-23T04:56:45;10.63;;;7.20;;
11535;SDS011;5824;49.336;8.652;2024-03-23T04:59:10;15.13;;;7.27;;
11535;SDS011;5824;49.336;8.652;2024-03-23T05:01:36;10.07;;;6.20;;
11535;SDS011;5824;49.336;8.652;2024-03-23T05:04:03;10.77;;;6.27;;
11535;SDS011;5824;49.336;8.652;2024-03-23T05:06:29;11.53;;;6.20;;
11535;SDS011;5824;49.336;8.652;2024-03-23T05:08:55;9.20;;;6.27;;
11535;SDS011;5824;49.336;8.652;2024-03-23T05:11:21;10.30;;;6.40;;
11535;SDS011;5824;49.336;8.652;2024-03-23T05:13:46;9.50;;;6.17;;
11535;SDS011;5824;49.336;8.652;2024-03-23T05:16:12;11.07;;;4.93;;
11535;SDS011;5824;49.336;8.652;2024-03-23T05:18:37;8.57;;;5.00;;
11535;SDS011;5824;49.336;8.652;2024-03-23T05:21:03;9.93;;;4.30;;
11535;SDS011;5824;49.336;8.652;2024-03-23T05:23:28;6.13;;;4.10;;
11535;SDS011;5824;49.336;8.652;2024-03-23T05:25:54;5.23;;;3.40;;
11535;SDS011;5824;49.336;8.652;2024-03-23T05:28:20;5.33;;;3.57;;
11535;SDS011;5824;49.336;8.652;2024-03-23T05:30:53;5.10;;;2.93;;
11535;SDS011;5824;49.336;8.652;2024-03-23T05:33:19;3.50;;;2.70;;
11535;SDS011;5824;49.336;8.652;2024-03-23T05:35:45;4.70;;;2.97;;
11535;SDS011;5824;49.336;8.652;2024-03-23T05:38:11;2.30;;;1.90;;
11535;SDS011;5824;49.336;8.652;2024-03-23T05:40:37;4.13;;;2.10;;
11535;SDS011;5824;49.336;8.652;2024-03-23T05:43:05;2.60;;;2.13;;
11535;SDS011;5824;49.336;8.652;2024-03-23T05:45:31;2.77;;;2.10;;
11535;SDS011;5824;49.336;8.652;2024-03-23T05:47:57;4.23;;;2.20;;
11535;SDS011;5824;49.336;8.652;2024-03-23T05:50:23;1.80;;;1.60;;
11535;SDS011;5824;49.336;8.652;2024-03-23T05:52:49;1.50;;;1.20;;
11535;SDS011;5824;49.336;8.652;2024-03-23T05:55:15;1.67;;;1.30;;
11535;SDS011;5824;49.336;8.652;2024-03-23T05:57:40;1.70;;;1.20;;
11535;SDS011;5824;49.336;8.652;2024-03-23T06:00:06;2.63;;;1.50;;
11535;SDS011;5824;49.336;8.652;2024-03-23T06:02:40;2.00;;;1.43;;
11535;SDS011;5824;49.336;8.652;2024-03-23T06:05:06;4.50;;;1.40;;
11535;SDS011;5824;49.336;8.652;2024-03-23T06:07:32;2.43;;;1.47;;
11535;SDS011;5824;49.336;8.652;2024-03-23T06:09:58;1.87;;;1.23;;
11535;SDS011;5824;49.336;8.652;2024-03-23T06:12:23;2.00;;;1.40;;
11535;SDS011;5824;49.336;8.652;2024-03-23T06:14:49;1.67;;;1.57;;
11535;SDS011;5824;49.336;8.652;2024-03-23T06:17:14;1.60;;;1.37;;
11535;SDS011;5824;49.336;8.652;2024-03-23T06:19:40;1.80;;;1.60;;
11535;SDS011;5824;49.336;8.652;2024-03-23T06:22:06;3.30;;;1.73;;
11535;SDS011;5824;49.336;8.652;2024-03-23T06:24:31;1.73;;;1.30;;
11535;SDS011;5824;49.336;8.652;2024-03-23T06:26:57;1.90;;;1.30;;
11535;SDS011;5824;49.336;8.652;2024-03-23T06:29:22;2.23;;;1.47;;
11535;SDS011;5824;49.336;8.652;2024-03-23T06:31:54;2.00;;;1.43;;
11535;SDS011;5824;49.336;8.652;2024-03-23T06:34:20;1.70;;;1.40;;
11535;SDS011;5824;49.336;8.652;2024-03-23T06:36:47;1.80;;;1.60;;
11535;SDS011;5824;49.336;8.652;2024-03-23T06:39:14;1.70;;;1.40;;
11535;SDS011;5824;49.336;8.652;2024-03-23T06:41:41;1.90;;;1.40;;
11535;SDS011;5824;49.336;8.652;2024-03-23T06:44:19;1.50;;;1.30;;
11535;SDS011;5824;49.336;8.652;2024-03-23T06:46:45;1.80;;;1.20;;
11535;SDS011;5824;49.336;8.652;2024-03-23T06:49:11;1.67;;;1.30;;
11535;SDS011;5824;49.336;8.652;2024-03-23T06:51:37;2.00;;;1.73;;
11535;SDS011;5824;49.336;8.652;2024-03-23T06:54:03;1.90;;;1.27;;
11535;SDS011;5824;49.336;8.652;2024-03-23T06:56:30;1.40;;;1.20;;
11535;SDS011;5824;49.336;8.652;2024-03-23T06:58:56;2.13;;;1.33;;
11535;SDS011;5824;49.336;8.652;2024-03-23T07:01:22;1.37;;;1.13;;
11535;SDS011;5824;49.336;8.652;2024-03-23T07:03:47;1.50;;;1.20;;
11535;SDS011;5824;49.336;8.652;2024-03-23T07:06:13;1.13;;;1.00;;
11535;SDS011;5824;49.336;8.652;2024-03-23T07:08:38;1.60;;;1.17;;
11535;SDS011;5824;49.336;8.652;2024-03-23T07:11:04;8.50;;;1.20;;
11535;SDS011;5824;49.336;8.652;2024-03-23T07:13:29;1.30;;;1.00;;
11535;SDS011;5824;49.336;8.652;2024-03-23T07:15:55;1.30;;;1.00;;
11535;SDS011;5824;49.336;8.652;2024-03-23T07:18:22;1.10;;;0.90;;
11535;SDS011;5824;49.336;8.652;2024-03-23T07:23:19;1.10;;;0.90;;
11535;SDS011;5824;49.336;8.652;2024-03-23T07:25:44;1.00;;;0.73;;
11535;SDS011;5824;49.336;8.652;2024-03-23T07:28:10;1.67;;;0.80;;
11535;SDS011;5824;49.336;8.652;2024-03-23T07:30:36;1.30;;;0.80;;
11535;SDS011;5824;49.336;8.652;2024-03-23T07:33:01;1.10;;;0.80;;
11535;SDS011;5824;49.336;8.652;2024-03-23T07:35:27;1.00;;;0.80;;
11535;SDS011;5824;49.336;8.652;2024-03-23T07:37:52;1.10;;;0.80;;
11535;SDS011;5824;49.336;8.652;2024-03-23T07:40:18;1.00;;;0.80;;
11535;SDS011;5824;49.336;8.652;2024-03-23T07:42:43;1.47;;;0.90;;
11535;SDS011;5824;49.336;8.652;2024-03-23T07:45:09;1.20;;;0.80;;
11535;SDS011;5824;49.336;8.652;2024-03-23T07:47:35;1.60;;;0.90;;
11535;SDS011;5824;49.336;8.652;2024-03-23T07:50:01;1.87;;;0.80;;
11535;SDS011;5824;49.336;8.652;2024-03-23T07:52:29;1.10;;;0.90;;
11535;SDS011;5824;49.336;8.652;2024-03-23T07:54:55;2.20;;;1.00;;
11535;SDS011;5824;49.336;8.652;2024-03-23T07:57:20;1.67;;;1.00;;
11535;SDS011;5824;49.336;8.652;2024-03-23T07:59:46;2.73;;;1.10;;
11535;SDS011;5824;49.336;8.652;2024-03-23T08:02:11;2.70;;;1.20;;
11535;SDS011;5824;49.336;8.652;2024-03-23T08:04:37;3.00;;;1.30;;
11535;SDS011;5824;49.336;8.652;2024-03-23T08:07:02;2.43;;;1.20;;
11535;SDS011;5824;49.336;8.652;2024-03-23T08:09:28;3.43;;;1.30;;
11535;SDS011;5824;49.336;8.652;2024-03-23T08:11:54;3.33;;;1.47;;
11535;SDS011;5824;49.336;8.652;2024-03-23T08:14:19;4.30;;;1.67;;
11535;SDS011;5824;49.336;8.652;2024-03-23T08:16:45;4.87;;;1.70;;
11535;SDS011;5824;49.336;8.652;2024-03-23T08:19:13;3.50;;;1.20;;
11535;SDS011;5824;49.336;8.652;2024-03-23T08:21:39;5.47;;;1.60;;
11535;SDS011;5824;49.336;8.652;2024-03-23T08:24:05;4.10;;;1.73;;
11535;SDS011;5824;49.336;8.652;2024-03-23T08:26:31;3.00;;;1.33;;
11535;SDS011;5824;49.336;8.652;2024-03-23T08:28:56;4.00;;;1.30;;
11535;SDS011;5824;49.336;8.652;2024-03-23T08:31:22;8.50;;;1.57;;
11535;SDS011;5824;49.336;8.652;2024-03-23T08:33:47;2.87;;;1.50;;
11535;SDS011;5824;49.336;8.652;2024-03-23T08:36:13;4.63;;;1.93;;
11535;SDS011;5824;49.336;8.652;2024-03-23T08:38:42;2.80;;;1.70;;
11535;SDS011;5824;49.336;8.652;2024-03-23T08:41:08;4.70;;;1.70;;
11535;SDS011;5824;49.336;8.652;2024-03-23T08:43:35;2.80;;;1.83;;
11535;SDS011;5824;49.336;8.652;2024-03-23T08:46:05;3.97;;;1.70;;
11535;SDS011;5824;49.336;8.652;2024-03-23T08:48:35;2.57;;;1.50;;
11535;SDS011;5824;49.336;8.652;2024-03-23T08:51:02;3.57;;;1.70;;
11535;SDS011;5824;49.336;8.652;2024-03-23T08:53:29;4.27;;;1.80;;
11535;SDS011;5824;49.336;8.652;2024-03-23T08:55:55;8.27;;;2.27;;
11535;SDS011;5824;49.336;8.652;2024-03-23T08:58:23;5.73;;;2.40;;
11535;SDS011;5824;49.336;8.652;2024-03-23T09:00:50;5.73;;;1.90;;
11535;SDS011;5824;49.336;8.652;2024-03-23T09:03:16;3.23;;;2.00;;
11535;SDS011;5824;49.336;8.652;2024-03-23T09:05:42;3.27;;;2.00;;
11535;SDS011;5824;49.336;8.652;2024-03-23T09:08:07;7.03;;;2.10;;
11535;SDS011;5824;49.336;8.652;2024-03-23T09:10:39;6.33;;;1.80;;
11535;SDS011;5824;49.336;8.652;2024-03-23T09:13:06;13.67;;;2.57;;
11535;SDS011;5824;49.336;8.652;2024-03-23T09:15:33;2.90;;;1.90;;
11535;SDS011;5824;49.336;8.652;2024-03-23T09:18:00;5.73;;;2.03;;
11535;SDS011;5824;49.336;8.652;2024-03-23T09:20:25;7.23;;;2.20;;
11535;SDS011;5824;49.336;8.652;2024-03-23T09:22:51;3.20;;;1.70;;
11535;SDS011;5824;49.336;8.652;2024-03-23T09:25:16;4.03;;;1.77;;
11535;SDS011;5824;49.336;8.652;2024-03-23T09:27:42;4.53;;;2.03;;
11535;SDS011;5824;49.336;8.652;2024-03-23T09:30:07;5.83;;;2.40;;
11535;SDS011;5824;49.336;8.652;2024-03-23T09:32:35;5.73;;;2.10;;
11535;SDS011;5824;49.336;8.652;2024-03-23T09:35:00;7.80;;;2.50;;
11535;SDS011;5824;49.336;8.652;2024-03-23T09:37:26;6.67;;;2.67;;
11535;SDS011;5824;49.336;8.652;2024-03-23T09:39:51;5.93;;;2.00;;
11535;SDS011;5824;49.336;8.652;2024-03-23T09:42:17;4.47;;;2.30;;
11535;SDS011;5824;49.336;8.652;2024-03-23T09:44:42;4.10;;;2.10;;
11535;SDS011;5824;49.336;8.652;2024-03-23T09:47:09;6.27;;;1.83;;
11535;SDS011;5824;49.336;8.652;2024-03-23T09:49:34;8.67;;;2.67;;
11535;SDS011;5824;49.336;8.652;2024-03-23T09:52:03;3.87;;;2.77;;
11535;SDS011;5824;49.336;8.652;2024-03-23T09:54:29;6.77;;;2.50;;
11535;SDS011;5824;49.336;8.652;2024-03-23T09:56:55;6.37;;;2.50;;
11535;SDS011;5824;49.336;8.652;2024-03-23T09:59:20;5.40;;;2.40;;
11535;SDS011;5824;49.336;8.652;2024-03-23T10:01:46;5.30;;;2.30;;
11535;SDS011;5824;49.336;8.652;2024-03-23T10:04:12;7.00;;;2.30;;
11535;SDS011;5824;49.336;8.652;2024-03-23T10:07:10;5.23;;;2.50;;
11535;SDS011;5824;49.336;8.652;2024-03-23T10:09:40;7.27;;;2.60;;
11535;SDS011;5824;49.336;8.652;2024-03-23T10:12:09;7.63;;;2.30;;
11535;SDS011;5824;49.336;8.652;2024-03-23T10:14:39;10.83;;;2.50;;
11535;SDS011;5824;49.336;8.652;2024-03-23T10:17:12;6.83;;;2.23;;
11535;SDS011;5824;49.336;8.652;2024-03-23T10:19:45;5.07;;;2.43;;
11535;SDS011;5824;49.336;8.652;2024-03-23T10:22:17;6.77;;;2.87;;
11535;SDS011;5824;49.336;8.652;2024-03-23T10:24:44;9.47;;;2.53;;
11535;SDS011;5824;49.336;8.652;2024-03-23T10:27:13;7.33;;;2.40;;
11535;SDS011;5824;49.336;8.652;2024-03-23T10:29:41;5.50;;;2.57;;
11535;SDS011;5824;49.336;8.652;2024-03-23T10:32:10;7.13;;;2.17;;
11535;SDS011;5824;49.336;8.652;2024-03-23T10:34:37;7.40;;;2.70;;
11535;SDS011;5824;49.336;8.652;2024-03-23T10:37:03;3.93;;;1.90;;
11535;SDS011;5824;49.336;8.652;2024-03-23T10:39:36;4.10;;;1.90;;
11535;SDS011;5824;49.336;8.652;2024-03-23T10:42:04;5.47;;;2.13;;
11535;SDS011;5824;49.336;8.652;2024-03-23T10:44:30;5.03;;;2.30;;
11535;SDS011;5824;49.336;8.652;2024-03-23T10:47:03;7.77;;;2.20;;
11535;SDS011;5824;49.336;8.652;2024-03-23T10:49:30;7.03;;;2.47;;
11535;SDS011;5824;49.336;8.652;2024-03-23T10:52:01;6.40;;;2.70;;
11535;SDS011;5824;49.336;8.652;2024-03-23T10:54:30;6.53;;;2.33;;
11535;SDS011;5824;49.336;8.652;2024-03-23T10:59:29;7.13;;;2.47;;
11535;SDS011;5824;49.336;8.652;2024-03-23T11:01:57;6.47;;;2.83;;
11535;SDS011;5824;49.336;8.652;2024-03-23T11:04:33;8.13;;;2.30;;
11535;SDS011;5824;49.336;8.652;2024-03-23T11:07:03;6.03;;;2.67;;
11535;SDS011;5824;49.336;8.652;2024-03-23T11:09:48;7.07;;;1.93;;
11535;SDS011;5824;49.336;8.652;2024-03-23T11:15:34;5.50;;;2.27;;
11535;SDS011;5824;49.336;8.652;2024-03-23T11:17:38;6.00;;;2.53;;
11535;SDS011;5824;49.336;8.652;2024-03-23T11:20:04;6.13;;;2.73;;
11535;SDS011;5824;49.336;8.652;2024-03-23T11:22:40;9.27;;;2.43;;
11535;SDS011;5824;49.336;8.652;2024-03-23T11:27:47;4.03;;;2.00;;
11535;SDS011;5824;49.336;8.652;2024-03-23T11:30:14;6.20;;;2.00;;
11535;SDS011;5824;49.336;8.652;2024-03-23T11:32:44;4.80;;;2.20;;
11535;SDS011;5824;49.336;8.652;2024-03-23T11:35:11;4.63;;;1.90;;
11535;SDS011;5824;49.336;8.652;2024-03-23T11:38:01;5.40;;;2.20;;
11535;SDS011;5824;49.336;8.652;2024-03-23T11:40:34;6.83;;;2.00;;
11535;SDS011;5824;49.336;8.652;2024-03-23T11:43:01;5.50;;;1.90;;
11535;SDS011;5824;49.336;8.652;2024-03-23T11:45:29;6.90;;;2.30;;
11535;SDS011;5824;49.336;8.652;2024-03-23T11:48:05;3.97;;;1.90;;
11535;SDS011;5824;49.336;8.652;2024-03-23T11:50:39;9.30;;;1.87;;
11535;SDS011;5824;49.336;8.652;2024-03-23T11:53:11;5.63;;;2.43;;
11535;SDS011;5824;49.336;8.652;2024-03-23T11:55:53;5.33;;;2.47;;
11535;SDS011;5824;49.336;8.652;2024-03-23T11:58:22;4.70;;;1.90;;
11535;SDS011;5824;49.336;8.652;2024-03-23T12:00:50;7.83;;;2.23;;
11535;SDS011;5824;49.336;8.652;2024-03-23T12:03:30;6.43;;;2.40;;
11535;SDS011;5824;49.336;8.652;2024-03-23T12:05:58;6.13;;;2.13;;
11535;SDS011;5824;49.336;8.652;2024-03-23T12:11:04;4.23;;;1.93;;
11535;SDS011;5824;49.336;8.652;2024-03-23T12:13:31;5.87;;;2.03;;
11535;SDS011;5824;49.336;8.652;2024-03-23T12:16:08;6.13;;;2.40;;
11535;SDS011;5824;49.336;8.652;2024-03-23T12:18:35;3.93;;;2.03;;
11535;SDS011;5824;49.336;8.652;2024-03-23T12:21:01;10.90;;;2.43;;
11535;SDS011;5824;49.336;8.652;2024-03-23T12:23:26;4.27;;;2.20;;
11535;SDS011;5824;49.336;8.652;2024-03-23T12:25:52;4.70;;;2.30;;
11535;SDS011;5824;49.336;8.652;2024-03-23T12:28:17;7.00;;;2.40;;
11535;SDS011;5824;49.336;8.652;2024-03-23T12:30:43;4.80;;;2.23;;
11535;SDS011;5824;49.336;8.652;2024-03-23T12:33:08;4.93;;;2.10;;
11535;SDS011;5824;49.336;8.652;2024-03-23T12:35:34;5.03;;;2.90;;
11535;SDS011;5824;49.336;8.652;2024-03-23T12:37:59;4.40;;;2.50;;
11535;SDS011;5824;49.336;8.652;2024-03-23T12:40:25;5.37;;;2.43;;
11535;SDS011;5824;49.336;8.652;2024-03-23T12:42:52;8.13;;;3.00;;
11535;SDS011;5824;49.336;8.652;2024-03-23T12:45:18;13.40;;;2.23;;
11535;SDS011;5824;49.336;8.652;2024-03-23T12:47:43;2.90;;;2.03;;
11535;SDS011;5824;49.336;8.652;2024-03-23T12:50:09;3.47;;;1.87;;
11535;SDS011;5824;49.336;8.652;2024-03-23T12:52:35;5.13;;;1.90;;
11535;SDS011;5824;49.336;8.652;2024-03-23T12:55:01;2.07;;;1.53;;
11535;SDS011;5824;49.336;8.652;2024-03-23T12:57:26;4.10;;;1.50;;
11535;SDS011;5824;49.336;8.652;2024-03-23T12:59:52;3.20;;;1.67;;
11535;SDS011;5824;49.336;8.652;2024-03-23T13:02:21;2.43;;;1.50;;
11535;SDS011;5824;49.336;8.652;2024-03-23T13:04:50;7.77;;;1.77;;
11535;SDS011;5824;49.336;8.652;2024-03-23T13:07:17;3.50;;;2.23;;
11535;SDS011;5824;49.336;8.652;2024-03-23T13:09:43;4.70;;;1.77;;
11535;SDS011;5824;49.336;8.652;2024-03-23T13:12:09;4.30;;;2.07;;
11535;SDS011;5824;49.336;8.652;2024-03-23T13:14:35;5.23;;;1.30;;
11535;SDS011;5824;49.336;8.652;2024-03-23T13:17:00;1.73;;;0.93;;
11535;SDS011;5824;49.336;8.652;2024-03-23T13:19:27;4.80;;;1.47;;
11535;SDS011;5824;49.336;8.652;2024-03-23T13:21:55;1.70;;;1.00;;
11535;SDS011;5824;49.336;8.652;2024-03-23T13:24:22;2.53;;;1.20;;
11535;SDS011;5824;49.336;8.652;2024-03-23T13:26:49;4.63;;;1.30;;
11535;SDS011;5824;49.336;8.652;2024-03-23T13:29:15;2.07;;;1.10;;
11535;SDS011;5824;49.336;8.652;2024-03-23T13:31:41;1.57;;;1.03;;
11535;SDS011;5824;49.336;8.652;2024-03-23T13:34:06;1.33;;;0.90;;
11535;SDS011;5824;49.336;8.652;2024-03-23T13:36:32;1.97;;;1.00;;
11535;SDS011;5824;49.336;8.652;2024-03-23T13:38:57;1.70;;;0.93;;
11535;SDS011;5824;49.336;8.652;2024-03-23T13:41:23;1.60;;;1.43;;
11535;SDS011;5824;49.336;8.652;2024-03-23T13:43:49;1.40;;;1.10;;
11535;SDS011;5824;49.336;8.652;2024-03-23T13:46:15;2.90;;;1.50;;
11535;SDS011;5824;49.336;8.652;2024-03-23T13:48:40;2.80;;;1.17;;
11535;SDS011;5824;49.336;8.652;2024-03-23T13:51:07;2.30;;;1.00;;
11535;SDS011;5824;49.336;8.652;2024-03-23T13:53:32;4.43;;;1.10;;
11535;SDS011;5824;49.336;8.652;2024-03-23T13:55:58;3.07;;;1.40;;
11535;SDS011;5824;49.336;8.652;2024-03-23T13:58:24;1.63;;;1.17;;
11535;SDS011;5824;49.336;8.652;2024-03-23T14:00:52;3.43;;;1.30;;
11535;SDS011;5824;49.336;8.652;2024-03-23T14:03:18;4.33;;;1.40;;
11535;SDS011;5824;49.336;8.652;2024-03-23T14:05:43;3.37;;;1.83;;
11535;SDS011;5824;49.336;8.652;2024-03-23T14:08:09;4.90;;;1.80;;
11535;SDS011;5824;49.336;8.652;2024-03-23T14:10:36;3.07;;;1.13;;
11535;SDS011;5824;49.336;8.652;2024-03-23T14:13:05;4.33;;;1.20;;
11535;SDS011;5824;49.336;8.652;2024-03-23T14:15:30;3.37;;;1.10;;
11535;SDS011;5824;49.336;8.652;2024-03-23T14:17:56;4.07;;;1.50;;
11535;SDS011;5824;49.336;8.652;2024-03-23T14:20:22;4.70;;;1.20;;
11535;SDS011;5824;49.336;8.652;2024-03-23T14:22:48;4.13;;;1.20;;
11535;SDS011;5824;49.336;8.652;2024-03-23T14:25:14;3.90;;;1.10;;
11535;SDS011;5824;49.336;8.652;2024-03-23T14:27:40;2.57;;;1.37;;
11535;SDS011;5824;49.336;8.652;2024-03-23T14:30:06;3.27;;;1.20;;
11535;SDS011;5824;49.336;8.652;2024-03-23T14:32:32;3.00;;;1.30;;
11535;SDS011;5824;49.336;8.652;2024-03-23T14:35:02;4.27;;;1.57;;
11535;SDS011;5824;49.336;8.652;2024-03-23T14:37:28;3.17;;;1.43;;
11535;SDS011;5824;49.336;8.652;2024-03-23T14:39:57;3.00;;;1.20;;
11535;SDS011;5824;49.336;8.652;2024-03-23T14:42:23;3.83;;;1.27;;
11535;SDS011;5824;49.336;8.652;2024-03-23T14:44:49;3.43;;;1.00;;
11535;SDS011;5824;49.336;8.652;2024-03-23T14:47:15;2.70;;;1.33;;
11535;SDS011;5824;49.336;8.652;2024-03-23T14:49:42;3.27;;;1.20;;
11535;SDS011;5824;49.336;8.652;2024-03-23T14:52:11;2.00;;;1.20;;
11535;SDS011;5824;49.336;8.652;2024-03-23T14:54:38;2.50;;;1.23;;
11535;SDS011;5824;49.336;8.652;2024-03-23T14:57:03;2.97;;;1.40;;
11535;SDS011;5824;49.336;8.652;2024-03-23T14:59:29;2.63;;;1.20;;
11535;SDS011;5824;49.336;8.652;2024-03-23T15:01:55;2.83;;;1.27;;
11535;SDS011;5824;49.336;8.652;2024-03-23T15:04:20;2.40;;;1.10;;
11535;SDS011;5824;49.336;8.652;2024-03-23T15:06:46;5.50;;;1.13;;
11535;SDS011;5824;49.336;8.652;2024-03-23T15:09:14;2.77;;;1.20;;
11535;SDS011;5824;49.336;8.652;2024-03-23T15:11:40;3.63;;;1.40;;
11535;SDS011;5824;49.336;8.652;2024-03-23T15:14:05;2.63;;;1.40;;
11535;SDS011;5824;49.336;8.652;2024-03-23T15:16:32;5.77;;;1.60;;
11535;SDS011;5824;49.336;8.652;2024-03-23T15:18:58;2.43;;;1.40;;
11535;SDS011;5824;49.336;8.652;2024-03-23T15:21:24;4.43;;;1.60;;
11535;SDS011;5824;49.336;8.652;2024-03-23T15:23:49;2.00;;;1.20;;
11535;SDS011;5824;49.336;8.652;2024-03-23T15:26:14;2.30;;;1.17;;
11535;SDS011;5824;49.336;8.652;2024-03-23T15:28:41;6.20;;;1.57;;
11535;SDS011;5824;49.336;8.652;2024-03-23T15:31:19;2.27;;;1.40;;
11535;SDS011;5824;49.336;8.652;2024-03-23T15:33:45;2.20;;;1.30;;
11535;SDS011;5824;49.336;8.652;2024-03-23T15:36:10;4.87;;;1.23;;
11535;SDS011;5824;49.336;8.652;2024-03-23T15:38:36;4.13;;;1.17;;
11535;SDS011;5824;49.336;8.652;2024-03-23T15:41:03;3.37;;;1.87;;
11535;SDS011;5824;49.336;8.652;2024-03-23T15:43:29;3.53;;;1.60;;
11535;SDS011;5824;49.336;8.652;2024-03-23T15:48:22;3.70;;;1.30;;
11535;SDS011;5824;49.336;8.652;2024-03-23T15:50:51;4.80;;;1.30;;
11535;SDS011;5824;49.336;8.652;2024-03-23T15:53:18;3.00;;;1.37;;
11535;SDS011;5824;49.336;8.652;2024-03-23T15:55:44;4.50;;;1.00;;
11535;SDS011;5824;49.336;8.652;2024-03-23T15:58:10;3.40;;;1.33;;
11535;SDS011;5824;49.336;8.652;2024-03-23T16:00:35;4.93;;;1.37;;
11535;SDS011;5824;49.336;8.652;2024-03-23T16:03:01;1.10;;;0.80;;
11535;SDS011;5824;49.336;8.652;2024-03-23T16:05:26;1.70;;;1.10;;